Tropical Cyclones
[Index]
Main Index Home Page Stock Weather Photos Extreme Storms Discussion Storm News and Storm Chasing Reports Tropical Cyclones / Hurricanes / Typhoons Weather Data and Links Wild Fires / Bushfires Weather Observation Techniques Weather Picture Catalogue Tornado Pictures and Reports Stock Video Footage and DVDs for sale
Season 2002-2003 Tropical Cyclone CILLA Track Map
Season 2002-2003 Summaries: [BoM-AU] [JTWC-AU] [JTWC-SIO] [JTWC-SPAC] [JTWC-SH]
<<- Previous TC | JTWC 2002-2003 Season | Next TC ->>

click for intensity scale information  Lat/long Grid: Show Hide

 Date Labels: Show Hide

Joint Typhoon Warning Centre Cyclone Data

Name: CILLA

25 Jan 2003 06:00 UTC to 31 Jan 2003 00:00 UTC

    date/time    lat    long     hPa   cat  kts
2003-01-25 06   15.5   172.6    1004         20          
2003-01-25 12   15.3   173.6    1002         25          
2003-01-25 18   15.2   174.8    1002         25          
2003-01-26 00   15.2   176.0    1002         25          
2003-01-26 06   15.6   177.3    1000         30          
2003-01-26 12   16.1   178.6    1000         30          
2003-01-26 18   16.8   180.0    1004         25          
2003-01-27 00   17.7   178.1W   1000         30          
2003-01-27 06   19.0   176.7W    997         35          
2003-01-27 12   19.6   174.9W    997         35          
2003-01-27 18   20.0   173.1W    997         35          
2003-01-28 00   20.4   171.6W    997         35          
2003-01-28 06   21.0   170.2W    997         35          
2003-01-28 12   21.5   169.0W    997         35          
2003-01-28 18   21.8   168.2W    997         35          
2003-01-29 00   22.1   167.4W    997         35          
2003-01-29 06   22.5   166.6W   1005         35          
2003-01-29 12   22.8   166.0W   1000         30          
2003-01-29 18   23.2   165.6W   1000         30          
2003-01-30 00   23.7   165.3W   1000         30          
2003-01-30 06   24.5   165.1W   1009         25          
2003-01-30 12   24.9   165.1W   1002         25          
2003-01-30 18   25.2   165.0W   1002         25          
2003-01-31 00   25.6   164.8W   1002         25          
Winds are 1-min average.

Tropical cyclone tracks developed by Michael Bath using data from the Joint Typhoon Warning Centre Best Tracks and Google Maps.


[Australian Severe Weather index] [Copyright Notice] [Email Contacts] [Search This Site] [Privacy Policy]
Document: tropical_cyclone_cilla.htm Updated: 28 June 2017